sensor_id;sensor_type;location;lat;lon;timestamp;pressure;altitude;pressure_sealevel;temperature;humidity
52975;BME280;38839;45.186;5.720;2023-07-31T00:02:21;99361.91;;;19.97;87.86
52975;BME280;38839;45.186;5.720;2023-07-31T00:04:46;99361.06;;;19.96;87.80
52975;BME280;38839;45.186;5.720;2023-07-31T00:07:12;99367.16;;;19.98;87.85
52975;BME280;38839;45.186;5.720;2023-07-31T00:09:37;99357.78;;;19.89;88.22
52975;BME280;38839;45.186;5.720;2023-07-31T00:12:03;99356.56;;;19.75;89.50
52975;BME280;38839;45.186;5.720;2023-07-31T00:14:28;99353.31;;;19.66;90.54
52975;BME280;38839;45.186;5.720;2023-07-31T00:16:54;99342.63;;;19.69;90.88
52975;BME280;38839;45.186;5.720;2023-07-31T00:19:19;99337.97;;;19.76;90.24
52975;BME280;38839;45.186;5.720;2023-07-31T00:21:45;99338.84;;;19.77;89.90
52975;BME280;38839;45.186;5.720;2023-07-31T00:24:10;99337.00;;;19.79;90.45
52975;BME280;38839;45.186;5.720;2023-07-31T00:26:35;99345.25;;;19.71;91.27
52975;BME280;38839;45.186;5.720;2023-07-31T00:29:01;99332.94;;;19.68;92.63
52975;BME280;38839;45.186;5.720;2023-07-31T00:31:26;99328.81;;;19.61;94.21
52975;BME280;38839;45.186;5.720;2023-07-31T00:33:52;99331.41;;;19.63;94.78
52975;BME280;38839;45.186;5.720;2023-07-31T00:36:17;99321.91;;;19.57;96.17
52975;BME280;38839;45.186;5.720;2023-07-31T00:38:43;99322.13;;;19.51;97.24
52975;BME280;38839;45.186;5.720;2023-07-31T00:41:09;99324.88;;;19.48;98.26
52975;BME280;38839;45.186;5.720;2023-07-31T00:43:34;99315.22;;;19.47;98.54
52975;BME280;38839;45.186;5.720;2023-07-31T00:46:00;99317.06;;;19.45;99.29
52975;BME280;38839;45.186;5.720;2023-07-31T00:48:25;99317.28;;;19.39;99.96
52975;BME280;38839;45.186;5.720;2023-07-31T00:50:51;99323.59;;;19.35;100.00
52975;BME280;38839;45.186;5.720;2023-07-31T00:53:16;99323.03;;;19.26;100.00
52975;BME280;38839;45.186;5.720;2023-07-31T00:55:42;99327.47;;;19.26;100.00
52975;BME280;38839;45.186;5.720;2023-07-31T00:58:08;99323.13;;;19.23;100.00
52975;BME280;38839;45.186;5.720;2023-07-31T01:00:33;99325.75;;;19.23;100.00
52975;BME280;38839;45.186;5.720;2023-07-31T01:02:59;99318.16;;;19.14;100.00
52975;BME280;38839;45.186;5.720;2023-07-31T01:08:20;99315.75;;;19.08;100.00
52975;BME280;38839;45.186;5.720;2023-07-31T01:10:54;99323.50;;;19.13;100.00
52975;BME280;38839;45.186;5.720;2023-07-31T01:13:21;99322.66;;;19.12;100.00
52975;BME280;38839;45.186;5.720;2023-07-31T01:15:46;99319.16;;;19.12;100.00
52975;BME280;38839;45.186;5.720;2023-07-31T01:18:12;99314.09;;;19.05;100.00
52975;BME280;38839;45.186;5.720;2023-07-31T01:20:40;99321.34;;;18.99;100.00
52975;BME280;38839;45.186;5.720;2023-07-31T01:23:45;99321.88;;;18.83;100.00
52975;BME280;38839;45.186;5.720;2023-07-31T01:26:21;99325.00;;;18.68;100.00
52975;BME280;38839;45.186;5.720;2023-07-31T01:28:58;99324.25;;;18.64;100.00
52975;BME280;38839;45.186;5.720;2023-07-31T01:31:25;99321.25;;;18.48;100.00
52975;BME280;38839;45.186;5.720;2023-07-31T01:33:53;99315.34;;;18.40;100.00
52975;BME280;38839;45.186;5.720;2023-07-31T01:36:20;99324.38;;;18.33;100.00
52975;BME280;38839;45.186;5.720;2023-07-31T01:38:45;99319.28;;;18.27;100.00
52975;BME280;38839;45.186;5.720;2023-07-31T01:41:10;99323.53;;;18.33;100.00
52975;BME280;38839;45.186;5.720;2023-07-31T01:43:36;99323.38;;;18.37;100.00
52975;BME280;38839;45.186;5.720;2023-07-31T01:46:01;99318.81;;;18.42;100.00
52975;BME280;38839;45.186;5.720;2023-07-31T01:48:27;99315.34;;;18.40;100.00
52975;BME280;38839;45.186;5.720;2023-07-31T01:50:52;99320.53;;;18.43;100.00
52975;BME280;38839;45.186;5.720;2023-07-31T01:53:17;99323.16;;;18.43;100.00
52975;BME280;38839;45.186;5.720;2023-07-31T01:55:43;99325.72;;;18.46;100.00
52975;BME280;38839;45.186;5.720;2023-07-31T01:58:09;99322.91;;;18.51;100.00
52975;BME280;38839;45.186;5.720;2023-07-31T02:00:34;99314.09;;;18.52;100.00
52975;BME280;38839;45.186;5.720;2023-07-31T02:03:00;99316.66;;;18.54;100.00
52975;BME280;38839;45.186;5.720;2023-07-31T02:05:25;99312.91;;;18.61;100.00
52975;BME280;38839;45.186;5.720;2023-07-31T02:07:50;99316.66;;;18.54;100.00
52975;BME280;38839;45.186;5.720;2023-07-31T02:10:16;99310.78;;;18.45;100.00
52975;BME280;38839;45.186;5.720;2023-07-31T02:12:41;99306.56;;;18.40;100.00
52975;BME280;38839;45.186;5.720;2023-07-31T02:15:07;99315.56;;;18.34;100.00
52975;BME280;38839;45.186;5.720;2023-07-31T02:17:32;99319.91;;;18.35;100.00
52975;BME280;38839;45.186;5.720;2023-07-31T02:19:57;99313.63;;;18.39;100.00
52975;BME280;38839;45.186;5.720;2023-07-31T02:22:23;99316.22;;;18.41;100.00
52975;BME280;38839;45.186;5.720;2023-07-31T02:24:48;99313.53;;;18.42;100.00
52975;BME280;38839;45.186;5.720;2023-07-31T02:27:14;99316.44;;;18.33;100.00
52975;BME280;38839;45.186;5.720;2023-07-31T02:29:39;99308.91;;;18.21;100.00
52975;BME280;38839;45.186;5.720;2023-07-31T02:32:04;99316.53;;;18.03;100.00
52975;BME280;38839;45.186;5.720;2023-07-31T02:34:30;99310.56;;;17.97;100.00
52975;BME280;38839;45.186;5.720;2023-07-31T02:36:55;99314.25;;;17.91;100.00
52975;BME280;38839;45.186;5.720;2023-07-31T02:39:21;99307.16;;;17.93;100.00
52975;BME280;38839;45.186;5.720;2023-07-31T02:41:46;99310.44;;;18.01;100.00
52975;BME280;38839;45.186;5.720;2023-07-31T02:44:12;99306.81;;;18.04;100.00
52975;BME280;38839;45.186;5.720;2023-07-31T02:46:39;99316.41;;;18.06;100.00
52975;BME280;38839;45.186;5.720;2023-07-31T02:49:05;99311.88;;;18.12;100.00
52975;BME280;38839;45.186;5.720;2023-07-31T02:51:30;99314.19;;;18.21;100.00
52975;BME280;38839;45.186;5.720;2023-07-31T02:53:55;99310.56;;;18.25;100.00
52975;BME280;38839;45.186;5.720;2023-07-31T02:56:21;99314.00;;;18.27;100.00
52975;BME280;38839;45.186;5.720;2023-07-31T02:58:46;99312.28;;;18.26;100.00
52975;BME280;38839;45.186;5.720;2023-07-31T03:01:12;99307.09;;;18.23;100.00
52975;BME280;38839;45.186;5.720;2023-07-31T03:03:37;99312.34;;;18.24;100.00
52975;BME280;38839;45.186;5.720;2023-07-31T03:06:02;99303.75;;;18.18;100.00
52975;BME280;38839;45.186;5.720;2023-07-31T03:08:28;99307.59;;;18.07;100.00
52975;BME280;38839;45.186;5.720;2023-07-31T03:10:53;99310.47;;;18.00;100.00
52975;BME280;38839;45.186;5.720;2023-07-31T03:13:18;99313.16;;;17.98;100.00
52975;BME280;38839;45.186;5.720;2023-07-31T03:15:44;99309.69;;;17.96;100.00
52975;BME280;38839;45.186;5.720;2023-07-31T03:18:09;99309.75;;;17.95;100.00
52975;BME280;38839;45.186;5.720;2023-07-31T03:20:34;99314.34;;;17.88;100.00
52975;BME280;38839;45.186;5.720;2023-07-31T03:23:00;99321.50;;;17.84;100.00
52975;BME280;38839;45.186;5.720;2023-07-31T03:25:25;99321.53;;;17.83;100.00
52975;BME280;38839;45.186;5.720;2023-07-31T03:27:51;99319.84;;;17.80;100.00
52975;BME280;38839;45.186;5.720;2023-07-31T03:30:16;99332.97;;;17.82;100.00
52975;BME280;38839;45.186;5.720;2023-07-31T03:32:41;99332.91;;;17.85;100.00
52975;BME280;38839;45.186;5.720;2023-07-31T03:35:07;99326.78;;;17.84;100.00
52975;BME280;38839;45.186;5.720;2023-07-31T03:37:32;99324.19;;;17.83;100.00
52975;BME280;38839;45.186;5.720;2023-07-31T03:39:58;99322.38;;;17.85;100.00
52975;BME280;38839;45.186;5.720;2023-07-31T03:42:23;99330.25;;;17.86;100.00
52975;BME280;38839;45.186;5.720;2023-07-31T03:44:48;99323.28;;;17.82;100.00
52975;BME280;38839;45.186;5.720;2023-07-31T03:47:14;99322.41;;;17.82;100.00
52975;BME280;38839;45.186;5.720;2023-07-31T03:49:39;99329.50;;;17.80;100.00
52975;BME280;38839;45.186;5.720;2023-07-31T03:52:05;99334.88;;;17.77;100.00
52975;BME280;38839;45.186;5.720;2023-07-31T03:54:30;99333.31;;;17.69;100.00
52975;BME280;38839;45.186;5.720;2023-07-31T03:56:56;99335.94;;;17.71;100.00
52975;BME280;38839;45.186;5.720;2023-07-31T03:59:21;99336.22;;;17.62;100.00
52975;BME280;38839;45.186;5.720;2023-07-31T04:01:46;99342.53;;;17.56;100.00
52975;BME280;38839;45.186;5.720;2023-07-31T04:04:12;99344.16;;;17.60;100.00
52975;BME280;38839;45.186;5.720;2023-07-31T04:06:37;99339.06;;;17.54;100.00
52975;BME280;38839;45.186;5.720;2023-07-31T04:09:03;99345.16;;;17.56;100.00
52975;BME280;38839;45.186;5.720;2023-07-31T04:11:28;99346.16;;;17.52;100.00
52975;BME280;38839;45.186;5.720;2023-07-31T04:13:53;99347.88;;;17.53;100.00
52975;BME280;38839;45.186;5.720;2023-07-31T04:16:19;99351.25;;;17.58;100.00
52975;BME280;38839;45.186;5.720;2023-07-31T04:18:44;99346.50;;;17.40;100.00
52975;BME280;38839;45.186;5.720;2023-07-31T04:21:10;99340.09;;;17.48;100.00
52975;BME280;38839;45.186;5.720;2023-07-31T04:23:35;99334.75;;;17.52;100.00
52975;BME280;38839;45.186;5.720;2023-07-31T04:26:00;99333.84;;;17.51;100.00
52975;BME280;38839;45.186;5.720;2023-07-31T04:28:26;99343.72;;;17.44;100.00
52975;BME280;38839;45.186;5.720;2023-07-31T04:30:51;99344.75;;;17.39;100.00
52975;BME280;38839;45.186;5.720;2023-07-31T04:33:17;99341.28;;;17.37;100.00
52975;BME280;38839;45.186;5.720;2023-07-31T04:35:51;99347.28;;;17.43;100.00
52975;BME280;38839;45.186;5.720;2023-07-31T04:38:20;99360.34;;;17.48;100.00
52975;BME280;38839;45.186;5.720;2023-07-31T04:40:46;99361.19;;;17.48;100.00
52975;BME280;38839;45.186;5.720;2023-07-31T04:43:12;99358.41;;;17.53;100.00
52975;BME280;38839;45.186;5.720;2023-07-31T04:45:38;99351.31;;;17.55;100.00
52975;BME280;38839;45.186;5.720;2023-07-31T04:48:03;99357.19;;;17.66;100.00
52975;BME280;38839;45.186;5.720;2023-07-31T04:50:29;99353.50;;;17.72;100.00
52975;BME280;38839;45.186;5.720;2023-07-31T04:52:55;99359.84;;;17.65;100.00
52975;BME280;38839;45.186;5.720;2023-07-31T04:55:21;99370.25;;;17.69;100.00
52975;BME280;38839;45.186;5.720;2023-07-31T04:57:46;99368.28;;;17.78;100.00
52975;BME280;38839;45.186;5.720;2023-07-31T05:00:11;99361.84;;;17.88;100.00
52975;BME280;38839;45.186;5.720;2023-07-31T05:02:37;99376.50;;;17.98;100.00
52975;BME280;38839;45.186;5.720;2023-07-31T05:05:02;99373.59;;;18.07;100.00
52975;BME280;38839;45.186;5.720;2023-07-31T05:07:28;99374.63;;;18.02;100.00
52975;BME280;38839;45.186;5.720;2023-07-31T05:09:53;99361.72;;;18.21;100.00
52975;BME280;38839;45.186;5.720;2023-07-31T05:12:18;99363.72;;;18.42;100.00
52975;BME280;38839;45.186;5.720;2023-07-31T05:14:44;99357.59;;;18.68;100.00
52975;BME280;38839;45.186;5.720;2023-07-31T05:17:09;99362.94;;;18.67;100.00
52975;BME280;38839;45.186;5.720;2023-07-31T05:19:34;99366.81;;;18.83;100.00
52975;BME280;38839;45.186;5.720;2023-07-31T05:22:00;99364.53;;;18.99;100.00
52975;BME280;38839;45.186;5.720;2023-07-31T05:24:25;99358.00;;;19.35;100.00
52975;BME280;38839;45.186;5.720;2023-07-31T05:26:51;99353.56;;;19.35;100.00
52975;BME280;38839;45.186;5.720;2023-07-31T05:29:16;99354.19;;;19.42;100.00
52975;BME280;38839;45.186;5.720;2023-07-31T05:31:41;99355.09;;;19.42;100.00
52975;BME280;38839;45.186;5.720;2023-07-31T05:34:07;99355.41;;;19.33;100.00
52975;BME280;38839;45.186;5.720;2023-07-31T05:36:32;99359.34;;;19.70;100.00
52975;BME280;38839;45.186;5.720;2023-07-31T05:38:58;99359.72;;;19.84;100.00
52975;BME280;38839;45.186;5.720;2023-07-31T05:41:23;99358.94;;;20.28;100.00
52975;BME280;38839;45.186;5.720;2023-07-31T05:43:48;99356.66;;;20.19;100.00
52975;BME280;38839;45.186;5.720;2023-07-31T05:46:14;99366.50;;;20.15;100.00
52975;BME280;38839;45.186;5.720;2023-07-31T05:48:39;99356.97;;;20.98;100.00
52975;BME280;38839;45.186;5.720;2023-07-31T05:51:05;99352.66;;;22.70;90.15
52975;BME280;38839;45.186;5.720;2023-07-31T05:53:30;99362.38;;;24.72;75.67
52975;BME280;38839;45.186;5.720;2023-07-31T05:55:55;99347.34;;;27.24;64.22
52975;BME280;38839;45.186;5.720;2023-07-31T05:58:21;99341.53;;;27.18;60.92
52975;BME280;38839;45.186;5.720;2023-07-31T06:00:46;99339.28;;;28.86;55.85
52975;BME280;38839;45.186;5.720;2023-07-31T06:03:12;99337.72;;;30.21;50.66
52975;BME280;38839;45.186;5.720;2023-07-31T06:05:37;99336.66;;;31.20;46.18
52975;BME280;38839;45.186;5.720;2023-07-31T06:08:03;99337.16;;;31.56;44.90
52975;BME280;38839;45.186;5.720;2023-07-31T06:10:28;99336.16;;;29.62;48.29
52975;BME280;38839;45.186;5.720;2023-07-31T06:12:53;99334.13;;;29.77;47.75
52975;BME280;38839;45.186;5.720;2023-07-31T06:15:19;99334.91;;;27.23;51.66
52975;BME280;38839;45.186;5.720;2023-07-31T06:17:45;99335.88;;;25.13;61.68
52975;BME280;38839;45.186;5.720;2023-07-31T06:20:10;99335.69;;;25.16;62.32
52975;BME280;38839;45.186;5.720;2023-07-31T06:22:36;99335.94;;;24.97;63.72
52975;BME280;38839;45.186;5.720;2023-07-31T06:25:01;99323.88;;;25.20;62.22
52975;BME280;38839;45.186;5.720;2023-07-31T06:27:27;99333.63;;;23.97;67.26
52975;BME280;38839;45.186;5.720;2023-07-31T06:29:52;99337.94;;;24.63;66.78
52975;BME280;38839;45.186;5.720;2023-07-31T06:32:17;99336.53;;;26.73;60.35
52975;BME280;38839;45.186;5.720;2023-07-31T06:34:43;99329.28;;;29.24;51.69
52975;BME280;38839;45.186;5.720;2023-07-31T06:37:08;99321.22;;;30.69;46.46
52975;BME280;38839;45.186;5.720;2023-07-31T06:39:34;99323.69;;;30.93;43.30
52975;BME280;38839;45.186;5.720;2023-07-31T06:41:59;99320.94;;;33.35;39.10
52975;BME280;38839;45.186;5.720;2023-07-31T06:44:27;99315.88;;;32.73;39.29
52975;BME280;38839;45.186;5.720;2023-07-31T06:46:53;99306.47;;;32.28;39.64
52975;BME280;38839;45.186;5.720;2023-07-31T06:49:18;99312.31;;;29.23;44.21
52975;BME280;38839;45.186;5.720;2023-07-31T06:51:44;99320.59;;;28.49;47.30
52975;BME280;38839;45.186;5.720;2023-07-31T06:54:09;99326.34;;;28.56;47.22
52975;BME280;38839;45.186;5.720;2023-07-31T06:56:35;99317.44;;;26.65;52.30
52975;BME280;38839;45.186;5.720;2023-07-31T06:59:00;99307.53;;;25.41;56.74
52975;BME280;38839;45.186;5.720;2023-07-31T07:01:25;99302.56;;;24.90;59.82
52975;BME280;38839;45.186;5.720;2023-07-31T07:03:51;99309.75;;;23.80;64.71
52975;BME280;38839;45.186;5.720;2023-07-31T07:06:17;99295.16;;;23.54;68.99
52975;BME280;38839;45.186;5.720;2023-07-31T07:08:43;99297.66;;;25.13;62.65
52975;BME280;38839;45.186;5.720;2023-07-31T07:11:08;99293.97;;;26.96;54.87
52975;BME280;38839;45.186;5.720;2023-07-31T07:13:33;99293.78;;;31.17;44.38
52975;BME280;38839;45.186;5.720;2023-07-31T07:15:59;99303.19;;;31.23;41.52
52975;BME280;38839;45.186;5.720;2023-07-31T07:18:24;99302.19;;;31.45;40.73
52975;BME280;38839;45.186;5.720;2023-07-31T07:20:51;99287.84;;;33.03;37.30
52975;BME280;38839;45.186;5.720;2023-07-31T07:23:16;99297.09;;;30.35;41.37
52975;BME280;38839;45.186;5.720;2023-07-31T07:25:43;99295.78;;;28.70;44.39
52975;BME280;38839;45.186;5.720;2023-07-31T07:28:09;99296.31;;;27.90;47.04
52975;BME280;38839;45.186;5.720;2023-07-31T07:30:34;99295.22;;;26.90;50.25
52975;BME280;38839;45.186;5.720;2023-07-31T07:33:00;99295.25;;;27.16;50.33
52975;BME280;38839;45.186;5.720;2023-07-31T07:35:25;99294.75;;;28.95;46.34
52975;BME280;38839;45.186;5.720;2023-07-31T07:37:50;99294.31;;;31.11;41.66
52975;BME280;38839;45.186;5.720;2023-07-31T07:40:16;99291.56;;;33.02;36.69
52975;BME280;38839;45.186;5.720;2023-07-31T07:42:41;99295.84;;;34.53;34.26
52975;BME280;38839;45.186;5.720;2023-07-31T07:45:07;99295.59;;;31.38;36.57
52975;BME280;38839;45.186;5.720;2023-07-31T07:47:33;99293.78;;;30.64;39.41
52975;BME280;38839;45.186;5.720;2023-07-31T07:49:58;99294.09;;;32.26;36.51
52975;BME280;38839;45.186;5.720;2023-07-31T07:52:24;99287.88;;;29.94;39.42
52975;BME280;38839;45.186;5.720;2023-07-31T07:54:49;99280.72;;;27.95;43.43
52975;BME280;38839;45.186;5.720;2023-07-31T07:57:15;99281.94;;;26.88;46.68
52975;BME280;38839;45.186;5.720;2023-07-31T07:59:41;99279.72;;;26.55;47.78
52975;BME280;38839;45.186;5.720;2023-07-31T08:02:06;99276.22;;;25.43;49.97
52975;BME280;38839;45.186;5.720;2023-07-31T08:04:32;99279.06;;;25.11;52.41
52975;BME280;38839;45.186;5.720;2023-07-31T08:06:57;99267.28;;;24.85;54.03
52975;BME280;38839;45.186;5.720;2023-07-31T08:09:22;99271.47;;;25.62;52.43
52975;BME280;38839;45.186;5.720;2023-07-31T08:11:48;99269.53;;;26.20;50.69
52975;BME280;38839;45.186;5.720;2023-07-31T08:14:13;99270.50;;;26.19;51.51
52975;BME280;38839;45.186;5.720;2023-07-31T08:16:39;99265.81;;;29.10;44.80
52975;BME280;38839;45.186;5.720;2023-07-31T08:19:04;99263.34;;;31.26;40.25
52975;BME280;38839;45.186;5.720;2023-07-31T08:21:29;99251.31;;;34.02;34.41
52975;BME280;38839;45.186;5.720;2023-07-31T08:23:55;99258.94;;;34.34;33.64
52975;BME280;38839;45.186;5.720;2023-07-31T08:26:20;99252.84;;;33.02;34.24
52975;BME280;38839;45.186;5.720;2023-07-31T08:28:46;99255.34;;;32.76;34.74
52975;BME280;38839;45.186;5.720;2023-07-31T08:31:11;99257.28;;;30.50;38.26
52975;BME280;38839;45.186;5.720;2023-07-31T08:33:38;99252.47;;;29.44;40.22
52975;BME280;38839;45.186;5.720;2023-07-31T08:36:04;99256.63;;;29.48;40.37
52975;BME280;38839;45.186;5.720;2023-07-31T08:38:30;99250.22;;;29.94;39.89
52975;BME280;38839;45.186;5.720;2023-07-31T08:40:58;99245.34;;;32.18;36.49
52975;BME280;38839;45.186;5.720;2023-07-31T08:43:27;99236.09;;;35.85;30.70
52975;BME280;38839;45.186;5.720;2023-07-31T08:45:53;99234.41;;;37.80;27.85
52975;BME280;38839;45.186;5.720;2023-07-31T08:48:20;99235.06;;;37.82;27.17
52975;BME280;38839;45.186;5.720;2023-07-31T08:50:46;99236.38;;;39.24;25.21
52975;BME280;38839;45.186;5.720;2023-07-31T08:53:11;99228.28;;;39.31;24.83
52975;BME280;38839;45.186;5.720;2023-07-31T08:55:38;99234.81;;;39.96;23.44
52975;BME280;38839;45.186;5.720;2023-07-31T08:58:04;99234.69;;;40.41;22.72
52975;BME280;38839;45.186;5.720;2023-07-31T09:00:32;99226.50;;;40.26;23.03
52975;BME280;38839;45.186;5.720;2023-07-31T09:03:08;99243.63;;;40.13;22.20
52975;BME280;38839;45.186;5.720;2023-07-31T09:05:35;99229.59;;;39.50;22.89
52975;BME280;38839;45.186;5.720;2023-07-31T09:08:02;99220.66;;;39.27;23.41
52975;BME280;38839;45.186;5.720;2023-07-31T09:10:29;99208.53;;;39.95;22.72
52975;BME280;38839;45.186;5.720;2023-07-31T09:12:55;99205.34;;;39.77;22.43
52975;BME280;38839;45.186;5.720;2023-07-31T09:15:21;99209.44;;;38.54;23.51
52975;BME280;38839;45.186;5.720;2023-07-31T09:17:58;99203.38;;;34.48;27.32
52975;BME280;38839;45.186;5.720;2023-07-31T09:20:24;99197.25;;;33.37;28.67
52975;BME280;38839;45.186;5.720;2023-07-31T09:22:50;99189.00;;;31.24;32.03
52975;BME280;38839;45.186;5.720;2023-07-31T09:25:16;99187.59;;;30.03;34.09
52975;BME280;38839;45.186;5.720;2023-07-31T09:27:58;99190.59;;;29.89;34.26
52975;BME280;38839;45.186;5.720;2023-07-31T09:30:24;99187.66;;;29.69;34.91
52975;BME280;38839;45.186;5.720;2023-07-31T09:32:52;99183.81;;;29.28;35.51
52975;BME280;38839;45.186;5.720;2023-07-31T09:35:33;99189.16;;;29.06;36.44
52975;BME280;38839;45.186;5.720;2023-07-31T09:38:18;99186.38;;;29.30;36.17
52975;BME280;38839;45.186;5.720;2023-07-31T09:40:48;99180.25;;;29.05;36.49
52975;BME280;38839;45.186;5.720;2023-07-31T09:43:19;99178.63;;;28.92;36.45
52975;BME280;38839;45.186;5.720;2023-07-31T09:45:45;99172.31;;;28.93;36.77
52975;BME280;38839;45.186;5.720;2023-07-31T09:48:13;99174.47;;;28.65;37.36
52975;BME280;38839;45.186;5.720;2023-07-31T09:50:42;99166.75;;;27.77;38.83
52975;BME280;38839;45.186;5.720;2023-07-31T09:53:09;99174.16;;;26.34;41.60
52975;BME280;38839;45.186;5.720;2023-07-31T09:55:35;99167.53;;;26.39;42.08
52975;BME280;38839;45.186;5.720;2023-07-31T09:58:05;99160.50;;;27.02;40.95
52975;BME280;38839;45.186;5.720;2023-07-31T10:00:32;99161.13;;;26.02;42.92
52975;BME280;38839;45.186;5.720;2023-07-31T10:03:03;99158.97;;;26.34;42.65
52975;BME280;38839;45.186;5.720;2023-07-31T10:05:42;99148.97;;;26.76;42.37
52975;BME280;38839;45.186;5.720;2023-07-31T10:08:09;99143.59;;;26.50;42.59
52975;BME280;38839;45.186;5.720;2023-07-31T10:10:36;99143.34;;;26.54;42.59
52975;BME280;38839;45.186;5.720;2023-07-31T10:13:01;99143.28;;;26.02;43.44
52975;BME280;38839;45.186;5.720;2023-07-31T10:15:28;99134.03;;;25.39;44.63
52975;BME280;38839;45.186;5.720;2023-07-31T10:17:55;99144.84;;;25.65;44.38
52975;BME280;38839;45.186;5.720;2023-07-31T10:20:21;99136.31;;;25.73;44.55
52975;BME280;38839;45.186;5.720;2023-07-31T10:22:47;99138.50;;;26.07;43.81
52975;BME280;38839;45.186;5.720;2023-07-31T10:25:17;99129.22;;;26.26;43.06
52975;BME280;38839;45.186;5.720;2023-07-31T10:27:43;99121.47;;;26.61;42.74
52975;BME280;38839;45.186;5.720;2023-07-31T10:30:12;99115.44;;;26.58;42.74
52975;BME280;38839;45.186;5.720;2023-07-31T10:32:41;99106.78;;;26.54;43.08
52975;BME280;38839;45.186;5.720;2023-07-31T10:35:09;99106.56;;;26.32;43.42
52975;BME280;38839;45.186;5.720;2023-07-31T10:37:41;99105.91;;;26.28;43.51
52975;BME280;38839;45.186;5.720;2023-07-31T10:40:18;99103.31;;;26.26;43.55
52975;BME280;38839;45.186;5.720;2023-07-31T10:48:00;99090.94;;;26.38;43.65
52975;BME280;38839;45.186;5.720;2023-07-31T10:50:27;99085.66;;;26.49;43.58
52975;BME280;38839;45.186;5.720;2023-07-31T10:52:54;99086.41;;;26.52;43.48
52975;BME280;38839;45.186;5.720;2023-07-31T10:55:52;99092.00;;;26.36;42.97
52975;BME280;38839;45.186;5.720;2023-07-31T10:58:19;99077.84;;;26.21;43.55
52975;BME280;38839;45.186;5.720;2023-07-31T11:00:45;99070.38;;;26.26;43.31
52975;BME280;38839;45.186;5.720;2023-07-31T11:03:15;99067.59;;;26.40;43.69
52975;BME280;38839;45.186;5.720;2023-07-31T11:05:50;99065.81;;;26.66;42.94
52975;BME280;38839;45.186;5.720;2023-07-31T11:08:23;99061.50;;;26.64;43.13
52975;BME280;38839;45.186;5.720;2023-07-31T11:11:07;99054.56;;;26.48;43.09
52975;BME280;38839;45.186;5.720;2023-07-31T11:13:53;99052.50;;;26.14;44.04
52975;BME280;38839;45.186;5.720;2023-07-31T11:16:22;99054.72;;;25.94;44.18
52975;BME280;38839;45.186;5.720;2023-07-31T11:18:48;99050.25;;;25.95;44.83
52975;BME280;38839;45.186;5.720;2023-07-31T11:21:22;99049.41;;;26.07;44.58
52975;BME280;38839;45.186;5.720;2023-07-31T11:23:49;99039.38;;;26.23;44.23
52975;BME280;38839;45.186;5.720;2023-07-31T11:26:16;99030.78;;;26.31;43.66
52975;BME280;38839;45.186;5.720;2023-07-31T11:28:41;99033.78;;;26.39;43.57
52975;BME280;38839;45.186;5.720;2023-07-31T11:31:10;99022.44;;;26.48;43.09
52975;BME280;38839;45.186;5.720;2023-07-31T11:33:36;99029.50;;;26.49;43.10
52975;BME280;38839;45.186;5.720;2023-07-31T11:36:01;99021.38;;;26.13;43.85
52975;BME280;38839;45.186;5.720;2023-07-31T11:38:29;99021.94;;;25.65;44.67
52975;BME280;38839;45.186;5.720;2023-07-31T11:41:00;99010.00;;;25.70;44.88
52975;BME280;38839;45.186;5.720;2023-07-31T11:43:26;99013.47;;;25.98;44.45
52975;BME280;38839;45.186;5.720;2023-07-31T11:45:57;99007.59;;;26.19;44.49
52975;BME280;38839;45.186;5.720;2023-07-31T11:48:36;99002.78;;;26.24;44.05
52975;BME280;38839;45.186;5.720;2023-07-31T11:51:06;98996.78;;;26.33;43.59
52975;BME280;38839;45.186;5.720;2023-07-31T11:53:41;98997.19;;;26.27;43.67
52975;BME280;38839;45.186;5.720;2023-07-31T11:56:10;98989.72;;;26.32;44.32
52975;BME280;38839;45.186;5.720;2023-07-31T11:58:37;98986.50;;;26.27;44.25
52975;BME280;38839;45.186;5.720;2023-07-31T12:01:04;98986.94;;;26.34;44.32
52975;BME280;38839;45.186;5.720;2023-07-31T12:03:31;98987.81;;;26.34;44.36
52975;BME280;38839;45.186;5.720;2023-07-31T12:05:58;98979.78;;;26.34;44.15
52975;BME280;38839;45.186;5.720;2023-07-31T12:08:24;98978.06;;;26.20;44.09
52975;BME280;38839;45.186;5.720;2023-07-31T12:10:50;98969.28;;;26.31;44.31
52975;BME280;38839;45.186;5.720;2023-07-31T12:13:26;98964.69;;;26.33;44.20
52975;BME280;38839;45.186;5.720;2023-07-31T12:15:59;98959.75;;;26.53;44.00
52975;BME280;38839;45.186;5.720;2023-07-31T12:18:26;98953.63;;;26.50;43.72
52975;BME280;38839;45.186;5.720;2023-07-31T12:21:00;98953.00;;;26.60;44.14
52975;BME280;38839;45.186;5.720;2023-07-31T12:23:31;98947.19;;;26.66;43.86
52975;BME280;38839;45.186;5.720;2023-07-31T12:26:13;98940.00;;;26.79;42.94
52975;BME280;38839;45.186;5.720;2023-07-31T12:28:47;98938.09;;;26.93;43.29
52975;BME280;38839;45.186;5.720;2023-07-31T12:31:22;98942.72;;;26.90;42.76
52975;BME280;38839;45.186;5.720;2023-07-31T12:33:49;98936.88;;;26.85;43.57
52975;BME280;38839;45.186;5.720;2023-07-31T12:36:21;98937.50;;;26.89;43.77
52975;BME280;38839;45.186;5.720;2023-07-31T12:38:46;98932.47;;;26.84;44.92
52975;BME280;38839;45.186;5.720;2023-07-31T12:41:12;98925.63;;;26.80;45.37
52975;BME280;38839;45.186;5.720;2023-07-31T12:43:40;98915.72;;;26.69;46.02
52975;BME280;38839;45.186;5.720;2023-07-31T12:46:05;98915.56;;;26.84;45.96
52975;BME280;38839;45.186;5.720;2023-07-31T12:48:33;98915.44;;;26.85;45.91
52975;BME280;38839;45.186;5.720;2023-07-31T12:50:58;98913.00;;;26.82;45.59
52975;BME280;38839;45.186;5.720;2023-07-31T12:53:24;98898.47;;;26.74;46.25
52975;BME280;38839;45.186;5.720;2023-07-31T12:55:49;98894.06;;;26.97;45.95
52975;BME280;38839;45.186;5.720;2023-07-31T12:58:15;98891.94;;;27.02;46.05
52975;BME280;38839;45.186;5.720;2023-07-31T13:00:40;98889.47;;;26.99;45.21
52975;BME280;38839;45.186;5.720;2023-07-31T13:03:06;98880.47;;;27.00;45.12